sensor_id;sensor_type;location;lat;lon;timestamp;pressure;altitude;pressure_sealevel;temperature;humidity
39491;BME280;25175;50.140;18.990;2022-11-03T00:00:21;99275.72;;;9.80;65.75
39491;BME280;25175;50.140;18.990;2022-11-03T00:03:23;99274.47;;;9.76;65.40
39491;BME280;25175;50.140;18.990;2022-11-03T00:06:27;99269.91;;;9.70;65.68
39491;BME280;25175;50.140;18.990;2022-11-03T00:09:30;99274.50;;;9.68;66.13
39491;BME280;25175;50.140;18.990;2022-11-03T00:12:32;99270.91;;;9.69;65.97
39491;BME280;25175;50.140;18.990;2022-11-03T00:15:34;99270.56;;;9.72;66.52
39491;BME280;25175;50.140;18.990;2022-11-03T00:18:35;99272.19;;;9.73;66.30
39491;BME280;25175;50.140;18.990;2022-11-03T00:21:39;99274.78;;;9.73;65.39
39491;BME280;25175;50.140;18.990;2022-11-03T00:24:41;99272.53;;;9.70;65.53
39491;BME280;25175;50.140;18.990;2022-11-03T00:27:42;99271.28;;;9.66;65.46
39491;BME280;25175;50.140;18.990;2022-11-03T00:30:44;99273.59;;;9.61;65.67
39491;BME280;25175;50.140;18.990;2022-11-03T00:33:46;99277.38;;;9.58;65.55
39491;BME280;25175;50.140;18.990;2022-11-03T00:36:49;99269.84;;;9.55;65.55
39491;BME280;25175;50.140;18.990;2022-11-03T00:39:51;99274.59;;;9.52;64.61
39491;BME280;25175;50.140;18.990;2022-11-03T00:42:53;99272.41;;;9.41;64.43
39491;BME280;25175;50.140;18.990;2022-11-03T00:45:55;99272.19;;;9.28;64.85
39491;BME280;25175;50.140;18.990;2022-11-03T00:48:57;99264.75;;;9.17;65.51
39491;BME280;25175;50.140;18.990;2022-11-03T00:52:00;99267.91;;;9.04;65.76
39491;BME280;25175;50.140;18.990;2022-11-03T00:55:02;99274.69;;;8.91;66.02
39491;BME280;25175;50.140;18.990;2022-11-03T00:58:04;99272.63;;;8.78;66.02
39491;BME280;25175;50.140;18.990;2022-11-03T01:01:08;99273.34;;;8.64;66.65
39491;BME280;25175;50.140;18.990;2022-11-03T01:04:11;99274.03;;;8.58;66.50
39491;BME280;25175;50.140;18.990;2022-11-03T01:07:32;99269.97;;;8.56;66.46
39491;BME280;25175;50.140;18.990;2022-11-03T01:10:35;99267.19;;;8.57;65.61
39491;BME280;25175;50.140;18.990;2022-11-03T01:13:38;99269.13;;;8.55;65.79
39491;BME280;25175;50.140;18.990;2022-11-03T01:16:39;99276.19;;;8.55;65.51
39491;BME280;25175;50.140;18.990;2022-11-03T01:19:41;99273.56;;;8.47;65.24
39491;BME280;25175;50.140;18.990;2022-11-03T01:22:45;99284.38;;;8.44;65.38
39491;BME280;25175;50.140;18.990;2022-11-03T01:25:46;99287.00;;;8.44;65.73
39491;BME280;25175;50.140;18.990;2022-11-03T01:28:48;99282.41;;;8.46;66.18
39491;BME280;25175;50.140;18.990;2022-11-03T01:31:50;99285.84;;;8.46;66.19
39491;BME280;25175;50.140;18.990;2022-11-03T01:34:52;99289.88;;;8.49;65.80
39491;BME280;25175;50.140;18.990;2022-11-03T01:37:55;99280.13;;;8.43;65.89
39491;BME280;25175;50.140;18.990;2022-11-03T01:40:57;99277.69;;;8.41;66.08
39491;BME280;25175;50.140;18.990;2022-11-03T01:44:30;99277.38;;;8.36;65.74
39491;BME280;25175;50.140;18.990;2022-11-03T01:47:34;99281.63;;;8.29;65.65
39491;BME280;25175;50.140;18.990;2022-11-03T01:50:37;99281.81;;;8.28;65.26
39491;BME280;25175;50.140;18.990;2022-11-03T01:53:44;99267.31;;;8.25;65.41
39491;BME280;25175;50.140;18.990;2022-11-03T01:56:48;99279.53;;;8.25;65.53
39491;BME280;25175;50.140;18.990;2022-11-03T01:59:52;99272.69;;;8.24;66.24
39491;BME280;25175;50.140;18.990;2022-11-03T02:02:59;99278.53;;;8.26;66.47
39491;BME280;25175;50.140;18.990;2022-11-03T02:06:02;99274.16;;;8.26;66.69
39491;BME280;25175;50.140;18.990;2022-11-03T02:09:07;99268.09;;;8.26;66.82
39491;BME280;25175;50.140;18.990;2022-11-03T02:12:09;99280.50;;;8.24;66.51
39491;BME280;25175;50.140;18.990;2022-11-03T02:15:13;99270.59;;;8.19;66.31
39491;BME280;25175;50.140;18.990;2022-11-03T02:18:18;99272.19;;;8.12;66.98
39491;BME280;25175;50.140;18.990;2022-11-03T02:21:25;99270.38;;;8.05;66.77
39491;BME280;25175;50.140;18.990;2022-11-03T02:24:30;99277.09;;;7.99;66.74
39491;BME280;25175;50.140;18.990;2022-11-03T02:27:36;99275.00;;;7.95;67.15
39491;BME280;25175;50.140;18.990;2022-11-03T02:30:41;99278.28;;;7.89;67.56
39491;BME280;25175;50.140;18.990;2022-11-03T02:33:48;99274.34;;;7.85;67.95
39491;BME280;25175;50.140;18.990;2022-11-03T02:36:55;99281.50;;;7.83;67.73
39491;BME280;25175;50.140;18.990;2022-11-03T02:40:02;99274.88;;;7.80;68.04
39491;BME280;25175;50.140;18.990;2022-11-03T02:43:08;99285.28;;;7.80;68.04
39491;BME280;25175;50.140;18.990;2022-11-03T02:46:12;99284.78;;;7.77;68.08
39491;BME280;25175;50.140;18.990;2022-11-03T02:49:15;99276.97;;;7.77;68.08
39491;BME280;25175;50.140;18.990;2022-11-03T02:52:33;99276.47;;;7.73;68.27
39491;BME280;25175;50.140;18.990;2022-11-03T02:55:37;99276.47;;;7.73;68.31
39491;BME280;25175;50.140;18.990;2022-11-03T02:58:47;99276.16;;;7.68;68.26
39491;BME280;25175;50.140;18.990;2022-11-03T03:01:56;99273.72;;;7.67;68.54
39491;BME280;25175;50.140;18.990;2022-11-03T03:05:02;99272.06;;;7.66;68.72
39491;BME280;25175;50.140;18.990;2022-11-03T03:08:09;99272.06;;;7.66;68.55
39491;BME280;25175;50.140;18.990;2022-11-03T03:11:12;99284.31;;;7.65;68.53
39491;BME280;25175;50.140;18.990;2022-11-03T03:14:18;99277.28;;;7.66;68.52
39491;BME280;25175;50.140;18.990;2022-11-03T03:17:24;99287.56;;;7.67;68.43
39491;BME280;25175;50.140;18.990;2022-11-03T03:20:31;99284.16;;;7.67;68.19
39491;BME280;25175;50.140;18.990;2022-11-03T03:23:36;99292.94;;;7.66;67.78
39491;BME280;25175;50.140;18.990;2022-11-03T03:26:41;99290.50;;;7.64;67.85
39491;BME280;25175;50.140;18.990;2022-11-03T03:29:49;99290.66;;;7.63;67.43
39491;BME280;25175;50.140;18.990;2022-11-03T03:32:53;99292.13;;;7.57;67.04
39491;BME280;25175;50.140;18.990;2022-11-03T03:35:57;99284.94;;;7.51;66.67
39491;BME280;25175;50.140;18.990;2022-11-03T03:39:03;99283.66;;;7.47;67.33
39491;BME280;25175;50.140;18.990;2022-11-03T03:42:07;99275.03;;;7.47;67.53
39491;BME280;25175;50.140;18.990;2022-11-03T03:45:12;99282.34;;;7.51;67.34
39491;BME280;25175;50.140;18.990;2022-11-03T03:48:14;99279.91;;;7.50;67.02
39491;BME280;25175;50.140;18.990;2022-11-03T03:51:18;99280.22;;;7.47;66.45
39491;BME280;25175;50.140;18.990;2022-11-03T03:54:23;99285.13;;;7.42;66.39
39491;BME280;25175;50.140;18.990;2022-11-03T03:57:26;99280.53;;;7.44;66.38
39491;BME280;25175;50.140;18.990;2022-11-03T04:00:29;99272.09;;;7.42;66.42
39491;BME280;25175;50.140;18.990;2022-11-03T04:03:31;99280.72;;;7.42;66.42
39491;BME280;25175;50.140;18.990;2022-11-03T04:06:33;99269.47;;;7.42;66.13
39491;BME280;25175;50.140;18.990;2022-11-03T04:09:35;99267.03;;;7.40;65.88
39491;BME280;25175;50.140;18.990;2022-11-03T04:12:39;99263.44;;;7.33;65.90
39491;BME280;25175;50.140;18.990;2022-11-03T04:16:00;99265.72;;;7.28;65.86
39491;BME280;25175;50.140;18.990;2022-11-03T04:19:19;99257.56;;;7.23;65.04
39491;BME280;25175;50.140;18.990;2022-11-03T04:22:38;99274.69;;;7.18;65.24
39491;BME280;25175;50.140;18.990;2022-11-03T04:25:41;99259.69;;;7.12;64.68
39491;BME280;25175;50.140;18.990;2022-11-03T04:28:44;99260.63;;;7.03;64.92
39491;BME280;25175;50.140;18.990;2022-11-03T04:31:47;99262.25;;;6.96;65.01
39491;BME280;25175;50.140;18.990;2022-11-03T04:34:49;99260.44;;;6.88;65.16
39491;BME280;25175;50.140;18.990;2022-11-03T04:37:54;99262.50;;;6.77;65.08
39491;BME280;25175;50.140;18.990;2022-11-03T04:40:57;99259.56;;;6.64;65.56
39491;BME280;25175;50.140;18.990;2022-11-03T04:43:59;99258.84;;;6.54;65.55
39491;BME280;25175;50.140;18.990;2022-11-03T04:47:08;99255.72;;;6.50;65.74
39491;BME280;25175;50.140;18.990;2022-11-03T04:50:16;99254.41;;;6.46;64.99
39491;BME280;25175;50.140;18.990;2022-11-03T04:53:20;99247.72;;;6.44;65.02
39491;BME280;25175;50.140;18.990;2022-11-03T04:56:23;99248.69;;;6.43;65.19
39491;BME280;25175;50.140;18.990;2022-11-03T04:59:25;99254.25;;;6.40;64.59
39491;BME280;25175;50.140;18.990;2022-11-03T05:02:28;99251.44;;;6.33;65.41
39491;BME280;25175;50.140;18.990;2022-11-03T05:05:31;99252.69;;;6.29;65.11
39491;BME280;25175;50.140;18.990;2022-11-03T05:08:32;99240.97;;;6.25;64.76
39491;BME280;25175;50.140;18.990;2022-11-03T05:11:36;99235.88;;;6.16;64.78
39491;BME280;25175;50.140;18.990;2022-11-03T05:14:39;99239.75;;;6.12;65.27
39491;BME280;25175;50.140;18.990;2022-11-03T05:17:42;99240.09;;;6.09;65.51
39491;BME280;25175;50.140;18.990;2022-11-03T05:20:48;99236.66;;;6.08;64.84
39491;BME280;25175;50.140;18.990;2022-11-03T05:23:53;99231.63;;;6.07;64.56
39491;BME280;25175;50.140;18.990;2022-11-03T05:26:57;99240.56;;;6.04;64.45
39491;BME280;25175;50.140;18.990;2022-11-03T05:29:59;99234.19;;;5.99;63.50
39491;BME280;25175;50.140;18.990;2022-11-03T05:33:14;99233.16;;;5.92;63.82
39491;BME280;25175;50.140;18.990;2022-11-03T05:36:21;99229.75;;;5.91;63.99
39491;BME280;25175;50.140;18.990;2022-11-03T05:39:30;99229.38;;;5.86;63.54
39491;BME280;25175;50.140;18.990;2022-11-03T05:42:35;99240.59;;;5.87;63.88
39491;BME280;25175;50.140;18.990;2022-11-03T05:45:38;99241.38;;;5.79;64.25
39491;BME280;25175;50.140;18.990;2022-11-03T05:48:41;99239.38;;;5.73;63.92
39491;BME280;25175;50.140;18.990;2022-11-03T05:51:44;99242.44;;;5.69;63.70
39491;BME280;25175;50.140;18.990;2022-11-03T05:54:47;99246.31;;;5.65;64.03
39491;BME280;25175;50.140;18.990;2022-11-03T05:57:49;99243.84;;;5.63;63.82
39491;BME280;25175;50.140;18.990;2022-11-03T06:00:52;99240.28;;;5.64;64.41
39491;BME280;25175;50.140;18.990;2022-11-03T06:03:56;99238.50;;;5.65;63.66
39491;BME280;25175;50.140;18.990;2022-11-03T06:07:02;99249.72;;;5.65;64.09
39491;BME280;25175;50.140;18.990;2022-11-03T06:10:20;99252.16;;;5.67;63.97
39491;BME280;25175;50.140;18.990;2022-11-03T06:13:26;99250.53;;;5.66;64.80
39491;BME280;25175;50.140;18.990;2022-11-03T06:16:38;99252.31;;;5.65;65.37
39491;BME280;25175;50.140;18.990;2022-11-03T06:19:44;99253.13;;;5.66;65.66
39491;BME280;25175;50.140;18.990;2022-11-03T06:22:47;99253.97;;;5.66;65.88
39491;BME280;25175;50.140;18.990;2022-11-03T06:25:53;99255.75;;;5.66;65.44
39491;BME280;25175;50.140;18.990;2022-11-03T06:28:56;99253.78;;;5.68;65.97
39491;BME280;25175;50.140;18.990;2022-11-03T06:31:58;99250.53;;;5.66;65.62
39491;BME280;25175;50.140;18.990;2022-11-03T06:35:01;99241.13;;;5.65;65.75
39491;BME280;25175;50.140;18.990;2022-11-03T06:38:07;99242.88;;;5.64;66.43
39491;BME280;25175;50.140;18.990;2022-11-03T06:41:18;99249.88;;;5.64;66.32
39491;BME280;25175;50.140;18.990;2022-11-03T06:44:23;99234.22;;;5.56;66.40
39491;BME280;25175;50.140;18.990;2022-11-03T06:47:27;99244.69;;;5.64;66.94
39491;BME280;25175;50.140;18.990;2022-11-03T06:50:31;99248.91;;;5.65;66.77
39491;BME280;25175;50.140;18.990;2022-11-03T06:53:33;99240.13;;;5.66;67.59
39491;BME280;25175;50.140;18.990;2022-11-03T06:56:35;99245.19;;;5.67;67.16
39491;BME280;25175;50.140;18.990;2022-11-03T06:59:37;99245.56;;;5.72;67.31
39491;BME280;25175;50.140;18.990;2022-11-03T07:02:51;99237.06;;;5.70;67.83
39491;BME280;25175;50.140;18.990;2022-11-03T07:06:01;99250.75;;;5.72;68.15
39491;BME280;25175;50.140;18.990;2022-11-03T07:09:06;99242.81;;;5.74;67.98
39491;BME280;25175;50.140;18.990;2022-11-03T07:12:14;99238.91;;;5.78;68.03
39491;BME280;25175;50.140;18.990;2022-11-03T07:15:26;99242.19;;;5.80;68.31
39491;BME280;25175;50.140;18.990;2022-11-03T07:18:33;99236.53;;;5.84;68.64
39491;BME280;25175;50.140;18.990;2022-11-03T07:21:39;99227.59;;;5.87;68.80
39491;BME280;25175;50.140;18.990;2022-11-03T07:24:45;99229.09;;;5.89;68.98
39491;BME280;25175;50.140;18.990;2022-11-03T07:27:49;99221.94;;;5.91;69.04
39491;BME280;25175;50.140;18.990;2022-11-03T07:30:51;99221.16;;;5.99;69.80
39491;BME280;25175;50.140;18.990;2022-11-03T07:33:55;99212.91;;;6.03;69.70
39491;BME280;25175;50.140;18.990;2022-11-03T07:36:59;99208.22;;;6.07;69.39
39491;BME280;25175;50.140;18.990;2022-11-03T07:40:02;99205.63;;;6.07;70.17
39491;BME280;25175;50.140;18.990;2022-11-03T07:43:13;99190.53;;;6.10;70.59
39491;BME280;25175;50.140;18.990;2022-11-03T07:46:18;99192.00;;;6.13;70.88
39491;BME280;25175;50.140;18.990;2022-11-03T07:49:26;99193.00;;;6.20;71.06
39491;BME280;25175;50.140;18.990;2022-11-03T07:52:29;99183.59;;;6.27;70.78
39491;BME280;25175;50.140;18.990;2022-11-03T07:55:31;99182.16;;;6.32;71.19
39491;BME280;25175;50.140;18.990;2022-11-03T07:58:34;99190.78;;;6.41;72.04
39491;BME280;25175;50.140;18.990;2022-11-03T08:01:40;99178.28;;;6.52;72.64
39491;BME280;25175;50.140;18.990;2022-11-03T08:04:42;99165.50;;;6.67;72.69
39491;BME280;25175;50.140;18.990;2022-11-03T08:07:45;99175.44;;;6.79;72.59
39491;BME280;25175;50.140;18.990;2022-11-03T08:10:47;99160.97;;;6.93;72.94
39491;BME280;25175;50.140;18.990;2022-11-03T08:13:49;99152.84;;;7.04;73.23
39491;BME280;25175;50.140;18.990;2022-11-03T08:16:51;99162.94;;;7.15;73.63
39491;BME280;25175;50.140;18.990;2022-11-03T08:19:53;99147.63;;;7.28;73.74
39491;BME280;25175;50.140;18.990;2022-11-03T08:22:56;99150.56;;;7.41;73.81
39491;BME280;25175;50.140;18.990;2022-11-03T08:25:58;99143.69;;;7.56;73.87
39491;BME280;25175;50.140;18.990;2022-11-03T08:29:00;99144.13;;;7.75;74.36
39491;BME280;25175;50.140;18.990;2022-11-03T08:32:03;99142.09;;;7.93;73.89
39491;BME280;25175;50.140;18.990;2022-11-03T08:35:05;99135.22;;;8.08;73.66
39491;BME280;25175;50.140;18.990;2022-11-03T08:38:08;99126.34;;;8.25;72.99
39491;BME280;25175;50.140;18.990;2022-11-03T08:41:10;99112.38;;;8.41;73.00
39491;BME280;25175;50.140;18.990;2022-11-03T08:44:12;99120.13;;;8.57;72.46
39491;BME280;25175;50.140;18.990;2022-11-03T08:47:14;99120.81;;;8.73;72.81
39491;BME280;25175;50.140;18.990;2022-11-03T08:50:16;99124.94;;;8.90;72.05
39491;BME280;25175;50.140;18.990;2022-11-03T08:53:19;99124.00;;;9.06;71.61
39491;BME280;25175;50.140;18.990;2022-11-03T08:56:22;99119.13;;;9.17;70.56
39491;BME280;25175;50.140;18.990;2022-11-03T08:59:23;99128.66;;;9.33;70.73
39491;BME280;25175;50.140;18.990;2022-11-03T09:02:25;99121.84;;;9.46;69.99
39491;BME280;25175;50.140;18.990;2022-11-03T09:05:27;99108.97;;;9.59;69.38
39491;BME280;25175;50.140;18.990;2022-11-03T09:08:31;99116.38;;;9.70;69.07
39491;BME280;25175;50.140;18.990;2022-11-03T09:11:33;99107.88;;;9.83;68.83
39491;BME280;25175;50.140;18.990;2022-11-03T09:14:34;99104.44;;;9.97;68.59
39491;BME280;25175;50.140;18.990;2022-11-03T09:17:36;99107.50;;;10.15;68.34
39491;BME280;25175;50.140;18.990;2022-11-03T09:20:38;99109.06;;;10.30;67.98
39491;BME280;25175;50.140;18.990;2022-11-03T09:23:42;99104.41;;;10.47;67.57
39491;BME280;25175;50.140;18.990;2022-11-03T09:26:43;99098.38;;;10.67;67.17
39491;BME280;25175;50.140;18.990;2022-11-03T09:29:46;99094.38;;;10.86;66.79
39491;BME280;25175;50.140;18.990;2022-11-03T09:32:48;99079.59;;;11.06;66.00
39491;BME280;25175;50.140;18.990;2022-11-03T09:35:49;99084.19;;;11.25;65.52
39491;BME280;25175;50.140;18.990;2022-11-03T09:38:53;99075.44;;;11.45;65.14
39491;BME280;25175;50.140;18.990;2022-11-03T09:41:55;99075.94;;;11.62;64.59
39491;BME280;25175;50.140;18.990;2022-11-03T09:44:58;99067.97;;;11.83;64.43
39491;BME280;25175;50.140;18.990;2022-11-03T09:48:01;99063.03;;;12.01;63.41
39491;BME280;25175;50.140;18.990;2022-11-03T09:51:03;99056.63;;;12.16;62.95
39491;BME280;25175;50.140;18.990;2022-11-03T09:54:11;99058.91;;;12.32;62.02
39491;BME280;25175;50.140;18.990;2022-11-03T09:57:15;99044.97;;;12.45;61.85
39491;BME280;25175;50.140;18.990;2022-11-03T10:00:19;99040.34;;;12.60;61.25
39491;BME280;25175;50.140;18.990;2022-11-03T10:03:21;99029.44;;;12.76;60.98
39491;BME280;25175;50.140;18.990;2022-11-03T10:06:23;99024.38;;;12.94;60.26
39491;BME280;25175;50.140;18.990;2022-11-03T10:09:27;99015.91;;;13.11;59.95
39491;BME280;25175;50.140;18.990;2022-11-03T10:12:31;99016.88;;;13.30;59.08
39491;BME280;25175;50.140;18.990;2022-11-03T10:15:36;99005.91;;;13.46;58.32
39491;BME280;25175;50.140;18.990;2022-11-03T10:18:37;99006.44;;;13.61;58.13
39491;BME280;25175;50.140;18.990;2022-11-03T10:21:41;98992.63;;;13.72;56.78
39491;BME280;25175;50.140;18.990;2022-11-03T10:24:44;98989.13;;;13.84;57.00
39491;BME280;25175;50.140;18.990;2022-11-03T10:27:46;98985.06;;;13.95;56.35
39491;BME280;25175;50.140;18.990;2022-11-03T10:30:53;98988.28;;;14.03;55.04
39491;BME280;25175;50.140;18.990;2022-11-03T10:33:55;98979.94;;;14.06;53.90
39491;BME280;25175;50.140;18.990;2022-11-03T10:37:15;98967.59;;;14.07;53.88
39491;BME280;25175;50.140;18.990;2022-11-03T10:40:34;98963.66;;;14.16;53.18
39491;BME280;25175;50.140;18.990;2022-11-03T10:43:38;98957.69;;;14.27;53.13
39491;BME280;25175;50.140;18.990;2022-11-03T10:46:54;98949.56;;;14.35;52.30
39491;BME280;25175;50.140;18.990;2022-11-03T10:49:56;98944.00;;;14.43;52.05
39491;BME280;25175;50.140;18.990;2022-11-03T10:52:58;98947.34;;;14.56;52.06
39491;BME280;25175;50.140;18.990;2022-11-03T10:56:02;98936.31;;;14.66;51.19
39491;BME280;25175;50.140;18.990;2022-11-03T10:59:04;98928.53;;;14.71;50.57
39491;BME280;25175;50.140;18.990;2022-11-03T11:02:14;98923.44;;;14.76;49.88
39491;BME280;25175;50.140;18.990;2022-11-03T11:05:19;98929.31;;;14.78;49.16
39491;BME280;25175;50.140;18.990;2022-11-03T11:08:22;98922.28;;;14.90;49.05
39491;BME280;25175;50.140;18.990;2022-11-03T11:11:26;98921.44;;;14.96;48.06
39491;BME280;25175;50.140;18.990;2022-11-03T11:14:35;98901.16;;;14.96;46.77
39491;BME280;25175;50.140;18.990;2022-11-03T11:17:43;98900.69;;;14.99;46.26
39491;BME280;25175;50.140;18.990;2022-11-03T11:20:45;98891.75;;;15.00;46.68
39491;BME280;25175;50.140;18.990;2022-11-03T11:23:48;98888.91;;;15.02;46.37
39491;BME280;25175;50.140;18.990;2022-11-03T11:26:53;98881.13;;;15.07;46.45
39491;BME280;25175;50.140;18.990;2022-11-03T11:29:55;98885.53;;;15.13;46.00
39491;BME280;25175;50.140;18.990;2022-11-03T11:32:58;98879.38;;;15.19;45.80
39491;BME280;25175;50.140;18.990;2022-11-03T11:39:43;98865.56;;;15.35;44.92
39491;BME280;25175;50.140;18.990;2022-11-03T11:46:38;98863.28;;;15.38;43.68
39491;BME280;25175;50.140;18.990;2022-11-03T11:49:41;98860.06;;;15.36;43.98
39491;BME280;25175;50.140;18.990;2022-11-03T11:52:45;98849.50;;;15.36;43.70
39491;BME280;25175;50.140;18.990;2022-11-03T11:55:50;98848.13;;;15.34;43.42
39491;BME280;25175;50.140;18.990;2022-11-03T11:58:53;98841.44;;;15.31;43.74
39491;BME280;25175;50.140;18.990;2022-11-03T12:01:57;98832.13;;;15.29;44.04
39491;BME280;25175;50.140;18.990;2022-11-03T12:04:59;98826.63;;;15.30;44.86
39491;BME280;25175;50.140;18.990;2022-11-03T12:08:16;98823.09;;;15.36;45.04
39491;BME280;25175;50.140;18.990;2022-11-03T12:11:42;98817.16;;;15.41;44.65
39491;BME280;25175;50.140;18.990;2022-11-03T12:14:44;98815.91;;;15.43;44.73
39491;BME280;25175;50.140;18.990;2022-11-03T12:17:46;98810.41;;;15.45;45.18
39491;BME280;25175;50.140;18.990;2022-11-03T12:20:48;98797.41;;;15.43;45.49
39491;BME280;25175;50.140;18.990;2022-11-03T12:23:50;98800.50;;;15.40;44.80
39491;BME280;25175;50.140;18.990;2022-11-03T12:26:53;98788.44;;;15.33;43.65
39491;BME280;25175;50.140;18.990;2022-11-03T12:29:56;98784.63;;;15.29;43.92
39491;BME280;25175;50.140;18.990;2022-11-03T12:32:58;98783.00;;;15.28;44.67
39491;BME280;25175;50.140;18.990;2022-11-03T12:36:00;98773.84;;;15.30;44.75
39491;BME280;25175;50.140;18.990;2022-11-03T12:39:02;98772.00;;;15.31;44.87
39491;BME280;25175;50.140;18.990;2022-11-03T12:42:06;98754.53;;;15.30;44.19
39491;BME280;25175;50.140;18.990;2022-11-03T12:45:09;98759.81;;;15.30;43.63
39491;BME280;25175;50.140;18.990;2022-11-03T12:48:13;98748.47;;;15.29;43.56
39491;BME280;25175;50.140;18.990;2022-11-03T12:51:16;98742.81;;;15.26;43.63
39491;BME280;25175;50.140;18.990;2022-11-03T12:54:18;98733.91;;;15.27;43.84
39491;BME280;25175;50.140;18.990;2022-11-03T12:57:22;98723.56;;;15.25;44.26
39491;BME280;25175;50.140;18.990;2022-11-03T13:00:24;98725.84;;;15.22;43.64
39491;BME280;25175;50.140;18.990;2022-11-03T13:03:26;98713.16;;;15.12;44.14
39491;BME280;25175;50.140;18.990;2022-11-03T13:06:28;98706.06;;;15.13;44.60
39491;BME280;25175;50.140;18.990;2022-11-03T13:09:30;98709.75;;;15.12;43.67
39491;BME280;25175;50.140;18.990;2022-11-03T13:12:33;98710.66;;;15.06;43.95
39491;BME280;25175;50.140;18.990;2022-11-03T13:15:37;98697.88;;;15.03;43.54
39491;BME280;25175;50.140;18.990;2022-11-03T13:18:39;98691.34;;;15.05;44.14
39491;BME280;25175;50.140;18.990;2022-11-03T13:21:41;98687.31;;;15.03;44.28
39491;BME280;25175;50.140;18.990;2022-11-03T13:24:43;98683.44;;;15.05;44.58
39491;BME280;25175;50.140;18.990;2022-11-03T13:27:46;98679.53;;;15.08;44.10
39491;BME280;25175;50.140;18.990;2022-11-03T13:30:53;98677.13;;;15.06;44.52
39491;BME280;25175;50.140;18.990;2022-11-03T13:33:55;98663.16;;;15.06;44.54
39491;BME280;25175;50.140;18.990;2022-11-03T13:36:57;98669.91;;;15.02;44.92
39491;BME280;25175;50.140;18.990;2022-11-03T13:39:59;98666.34;;;14.96;44.57
39491;BME280;25175;50.140;18.990;2022-11-03T13:43:02;98661.72;;;14.92;45.17
39491;BME280;25175;50.140;18.990;2022-11-03T13:46:04;98662.16;;;14.89;45.34
39491;BME280;25175;50.140;18.990;2022-11-03T13:49:06;98651.09;;;14.80;45.78
39491;BME280;25175;50.140;18.990;2022-11-03T13:52:08;98653.81;;;14.74;46.33
39491;BME280;25175;50.140;18.990;2022-11-03T13:55:10;98651.06;;;14.69;45.97
39491;BME280;25175;50.140;18.990;2022-11-03T13:58:14;98640.00;;;14.60;46.20
39491;BME280;25175;50.140;18.990;2022-11-03T14:01:15;98645.00;;;14.50;45.71
39491;BME280;25175;50.140;18.990;2022-11-03T14:04:17;98647.16;;;14.42;46.14
39491;BME280;25175;50.140;18.990;2022-11-03T14:07:19;98647.59;;;14.39;46.28
39491;BME280;25175;50.140;18.990;2022-11-03T14:10:21;98647.09;;;14.30;46.44
39491;BME280;25175;50.140;18.990;2022-11-03T14:13:25;98645.09;;;14.26;46.77
39491;BME280;25175;50.140;18.990;2022-11-03T14:16:27;98636.63;;;14.24;46.88
39491;BME280;25175;50.140;18.990;2022-11-03T14:19:29;98628.00;;;14.17;47.20
39491;BME280;25175;50.140;18.990;2022-11-03T14:22:31;98628.00;;;14.17;47.05
39491;BME280;25175;50.140;18.990;2022-11-03T14:25:33;98625.38;;;14.17;47.68
39491;BME280;25175;50.140;18.990;2022-11-03T14:28:36;98627.19;;;14.16;48.11
39491;BME280;25175;50.140;18.990;2022-11-03T14:31:38;98626.25;;;14.11;48.10
39491;BME280;25175;50.140;18.990;2022-11-03T14:34:40;98616.34;;;14.06;48.36
39491;BME280;25175;50.140;18.990;2022-11-03T14:37:43;98617.59;;;14.04;48.80
39491;BME280;25175;50.140;18.990;2022-11-03T14:40:44;98624.19;;;13.95;48.86
39491;BME280;25175;50.140;18.990;2022-11-03T14:44:05;98621.59;;;13.88;49.33
39491;BME280;25175;50.140;18.990;2022-11-03T14:47:08;98615.16;;;13.84;49.08
39491;BME280;25175;50.140;18.990;2022-11-03T14:50:10;98614.28;;;13.72;49.06
39491;BME280;25175;50.140;18.990;2022-11-03T14:53:12;98605.66;;;13.65;49.37
39491;BME280;25175;50.140;18.990;2022-11-03T14:56:14;98604.66;;;13.60;49.47
39491;BME280;25175;50.140;18.990;2022-11-03T14:59:17;98596.19;;;13.58;49.72
39491;BME280;25175;50.140;18.990;2022-11-03T15:02:19;98599.69;;;13.52;49.98
39491;BME280;25175;50.140;18.990;2022-11-03T15:05:21;98585.81;;;13.45;49.63
39491;BME280;25175;50.140;18.990;2022-11-03T15:08:42;98587.69;;;13.38;49.88
39491;BME280;25175;50.140;18.990;2022-11-03T15:11:44;98593.81;;;13.32;49.92
39491;BME280;25175;50.140;18.990;2022-11-03T15:14:49;98591.84;;;13.27;49.82
39491;BME280;25175;50.140;18.990;2022-11-03T15:17:51;98592.63;;;13.28;50.53
39491;BME280;25175;50.140;18.990;2022-11-03T15:20:53;98589.00;;;13.29;50.91
39491;BME280;25175;50.140;18.990;2022-11-03T15:23:55;98583.34;;;13.25;50.76
39491;BME280;25175;50.140;18.990;2022-11-03T15:26:57;98580.94;;;13.24;50.63
39491;BME280;25175;50.140;18.990;2022-11-03T15:30:00;98582.19;;;13.21;51.45
39491;BME280;25175;50.140;18.990;2022-11-03T15:33:02;98573.31;;;13.16;51.22
39491;BME280;25175;50.140;18.990;2022-11-03T15:36:04;98562.03;;;13.09;51.25
39491;BME280;25175;50.140;18.990;2022-11-03T15:39:07;98566.56;;;13.02;51.46
39491;BME280;25175;50.140;18.990;2022-11-03T15:42:09;98563.56;;;12.92;51.59
39491;BME280;25175;50.140;18.990;2022-11-03T15:45:14;98561.41;;;12.82;51.76
39491;BME280;25175;50.140;18.990;2022-11-03T15:48:16;98560.44;;;12.77;52.13
39491;BME280;25175;50.140;18.990;2022-11-03T15:51:18;98552.19;;;12.73;52.31
39491;BME280;25175;50.140;18.990;2022-11-03T15:54:20;98549.00;;;12.65;52.07
39491;BME280;25175;50.140;18.990;2022-11-03T15:57:22;98550.44;;;12.61;52.40
39491;BME280;25175;50.140;18.990;2022-11-03T16:00:25;98553.34;;;12.53;52.36
39491;BME280;25175;50.140;18.990;2022-11-03T16:03:27;98538.63;;;12.45;52.75
39491;BME280;25175;50.140;18.990;2022-11-03T16:06:29;98542.69;;;12.41;52.88
39491;BME280;25175;50.140;18.990;2022-11-03T16:09:31;98536.47;;;12.36;53.11
39491;BME280;25175;50.140;18.990;2022-11-03T16:12:32;98528.81;;;12.28;53.11
39491;BME280;25175;50.140;18.990;2022-11-03T16:15:37;98530.88;;;12.19;53.54